sensor_id;sensor_type;location;lat;lon;timestamp;pressure;altitude;pressure_sealevel;temperature;humidity
69528;BME280;57136;51.986;4.468;2022-07-01T00:01:42;101583.78;;;15.67;100.00
69528;BME280;57136;51.986;4.468;2022-07-01T00:04:08;101579.41;;;15.64;100.00
69528;BME280;57136;51.986;4.468;2022-07-01T00:06:34;101590.81;;;15.62;100.00
69528;BME280;57136;51.986;4.468;2022-07-01T00:08:59;101591.66;;;15.62;100.00
69528;BME280;57136;51.986;4.468;2022-07-01T00:11:25;101591.72;;;15.53;100.00
69528;BME280;57136;51.986;4.468;2022-07-01T00:13:50;101589.13;;;15.40;100.00
69528;BME280;57136;51.986;4.468;2022-07-01T00:16:16;101594.41;;;15.39;100.00
69528;BME280;57136;51.986;4.468;2022-07-01T00:18:41;101585.66;;;15.37;100.00
69528;BME280;57136;51.986;4.468;2022-07-01T00:21:07;101583.06;;;15.32;100.00
69528;BME280;57136;51.986;4.468;2022-07-01T00:23:32;101576.06;;;15.28;100.00
69528;BME280;57136;51.986;4.468;2022-07-01T00:25:58;101584.81;;;15.25;100.00
69528;BME280;57136;51.986;4.468;2022-07-01T00:28:24;101586.59;;;15.16;100.00
69528;BME280;57136;51.986;4.468;2022-07-01T00:30:49;101596.22;;;15.13;100.00
69528;BME280;57136;51.986;4.468;2022-07-01T00:33:14;101598.84;;;15.17;100.00
69528;BME280;57136;51.986;4.468;2022-07-01T00:35:41;101603.22;;;15.15;100.00
69528;BME280;57136;51.986;4.468;2022-07-01T00:38:06;101610.19;;;15.23;100.00
69528;BME280;57136;51.986;4.468;2022-07-01T00:40:31;101602.28;;;15.34;100.00
69528;BME280;57136;51.986;4.468;2022-07-01T00:42:57;101604.03;;;15.38;100.00
69528;BME280;57136;51.986;4.468;2022-07-01T00:45:22;101604.91;;;15.34;100.00
69528;BME280;57136;51.986;4.468;2022-07-01T00:47:47;101601.41;;;15.40;100.00
69528;BME280;57136;51.986;4.468;2022-07-01T00:50:15;101600.53;;;15.38;100.00
69528;BME280;57136;51.986;4.468;2022-07-01T00:52:42;101596.16;;;15.46;100.00
69528;BME280;57136;51.986;4.468;2022-07-01T00:55:10;101583.81;;;15.54;100.00
69528;BME280;57136;51.986;4.468;2022-07-01T00:57:37;101589.13;;;15.40;100.00
69528;BME280;57136;51.986;4.468;2022-07-01T01:00:14;101583.00;;;15.38;100.00
69528;BME280;57136;51.986;4.468;2022-07-01T01:02:42;101588.28;;;15.37;100.00
69528;BME280;57136;51.986;4.468;2022-07-01T01:05:08;101583.06;;;15.32;100.00
69528;BME280;57136;51.986;4.468;2022-07-01T01:07:34;101579.56;;;15.22;100.00
69528;BME280;57136;51.986;4.468;2022-07-01T01:10:01;101576.97;;;15.11;100.00
69528;BME280;57136;51.986;4.468;2022-07-01T01:12:29;101570.00;;;15.12;100.00
69528;BME280;57136;51.986;4.468;2022-07-01T01:14:55;101577.84;;;15.15;100.00
69528;BME280;57136;51.986;4.468;2022-07-01T01:17:21;101580.50;;;15.03;100.00
69528;BME280;57136;51.986;4.468;2022-07-01T01:19:48;101594.50;;;15.05;100.00
69528;BME280;57136;51.986;4.468;2022-07-01T01:22:14;101590.13;;;15.04;100.00
69528;BME280;57136;51.986;4.468;2022-07-01T01:24:42;101599.75;;;15.03;100.00
69528;BME280;57136;51.986;4.468;2022-07-01T01:27:07;101605.00;;;14.95;100.00
69528;BME280;57136;51.986;4.468;2022-07-01T01:29:34;101602.41;;;14.97;100.00
69528;BME280;57136;51.986;4.468;2022-07-01T01:32:00;101597.13;;;14.98;100.00
69528;BME280;57136;51.986;4.468;2022-07-01T01:34:26;101594.50;;;15.08;100.00
69528;BME280;57136;51.986;4.468;2022-07-01T01:36:52;101597.13;;;15.05;100.00
69528;BME280;57136;51.986;4.468;2022-07-01T01:39:18;101600.63;;;15.07;100.00
69528;BME280;57136;51.986;4.468;2022-07-01T01:41:44;101607.59;;;15.06;100.00
69528;BME280;57136;51.986;4.468;2022-07-01T01:44:10;101619.00;;;15.04;100.00
69528;BME280;57136;51.986;4.468;2022-07-01T01:46:36;101622.50;;;15.03;100.00
69528;BME280;57136;51.986;4.468;2022-07-01T01:49:02;101629.50;;;15.10;100.00
69528;BME280;57136;51.986;4.468;2022-07-01T01:51:28;101625.97;;;15.09;100.00
69528;BME280;57136;51.986;4.468;2022-07-01T01:53:53;101630.34;;;15.10;100.00
69528;BME280;57136;51.986;4.468;2022-07-01T01:56:19;101626.00;;;15.08;100.00
69528;BME280;57136;51.986;4.468;2022-07-01T01:58:45;101623.34;;;15.12;100.00
69528;BME280;57136;51.986;4.468;2022-07-01T02:01:11;101620.72;;;15.19;100.00
69528;BME280;57136;51.986;4.468;2022-07-01T02:03:38;101622.44;;;15.31;100.00
69528;BME280;57136;51.986;4.468;2022-07-01T02:06:05;101618.06;;;15.36;100.00
69528;BME280;57136;51.986;4.468;2022-07-01T02:08:30;101610.16;;;15.39;100.00
69528;BME280;57136;51.986;4.468;2022-07-01T02:10:57;101614.56;;;15.37;100.00
69528;BME280;57136;51.986;4.468;2022-07-01T02:13:22;101619.78;;;15.46;100.00
69528;BME280;57136;51.986;4.468;2022-07-01T02:15:47;101629.41;;;15.49;100.00
69528;BME280;57136;51.986;4.468;2022-07-01T02:18:14;101627.63;;;15.51;100.00
69528;BME280;57136;51.986;4.468;2022-07-01T02:20:41;101624.16;;;15.46;100.00
69528;BME280;57136;51.986;4.468;2022-07-01T02:23:08;101632.00;;;15.52;100.00
69528;BME280;57136;51.986;4.468;2022-07-01T02:25:34;101631.19;;;15.42;100.00
69528;BME280;57136;51.986;4.468;2022-07-01T02:28:00;101631.16;;;15.34;100.00
69528;BME280;57136;51.986;4.468;2022-07-01T02:30:26;101633.81;;;15.30;100.00
69528;BME280;57136;51.986;4.468;2022-07-01T02:32:52;101637.34;;;15.21;100.00
69528;BME280;57136;51.986;4.468;2022-07-01T02:35:18;101640.84;;;15.26;100.00
69528;BME280;57136;51.986;4.468;2022-07-01T02:37:43;101640.84;;;15.26;100.00
69528;BME280;57136;51.986;4.468;2022-07-01T02:40:09;101637.31;;;15.28;100.00
69528;BME280;57136;51.986;4.468;2022-07-01T02:42:35;101639.97;;;15.30;100.00
69528;BME280;57136;51.986;4.468;2022-07-01T02:45:03;101639.09;;;15.25;100.00
69528;BME280;57136;51.986;4.468;2022-07-01T02:47:36;101632.09;;;15.27;100.00
69528;BME280;57136;51.986;4.468;2022-07-01T02:50:03;101634.69;;;15.25;100.00
69528;BME280;57136;51.986;4.468;2022-07-01T02:52:29;101630.34;;;15.20;100.00
69528;BME280;57136;51.986;4.468;2022-07-01T02:54:55;101635.63;;;15.18;100.00
69528;BME280;57136;51.986;4.468;2022-07-01T02:57:21;101639.09;;;15.12;100.00
69528;BME280;57136;51.986;4.468;2022-07-01T02:59:46;101640.00;;;15.02;100.00
69528;BME280;57136;51.986;4.468;2022-07-01T03:02:12;101637.38;;;14.97;100.00
69528;BME280;57136;51.986;4.468;2022-07-01T03:04:38;101641.78;;;14.89;100.00
69528;BME280;57136;51.986;4.468;2022-07-01T03:07:03;101633.88;;;14.94;100.00
69528;BME280;57136;51.986;4.468;2022-07-01T03:09:28;101631.25;;;14.88;100.00
69528;BME280;57136;51.986;4.468;2022-07-01T03:11:54;101635.63;;;14.79;100.00
69528;BME280;57136;51.986;4.468;2022-07-01T03:14:19;101647.00;;;14.85;100.00
69528;BME280;57136;51.986;4.468;2022-07-01T03:16:45;101647.88;;;14.76;100.00
69528;BME280;57136;51.986;4.468;2022-07-01T03:19:12;101641.75;;;14.78;100.00
69528;BME280;57136;51.986;4.468;2022-07-01T03:21:38;101642.66;;;14.79;100.00
69528;BME280;57136;51.986;4.468;2022-07-01T03:24:03;101644.41;;;14.89;100.00
69528;BME280;57136;51.986;4.468;2022-07-01T03:26:29;101632.16;;;14.88;100.00
69528;BME280;57136;51.986;4.468;2022-07-01T03:28:54;101635.63;;;14.96;100.00
69528;BME280;57136;51.986;4.468;2022-07-01T03:31:19;101627.75;;;14.92;100.00
69528;BME280;57136;51.986;4.468;2022-07-01T03:33:45;101631.28;;;14.80;100.00
69528;BME280;57136;51.986;4.468;2022-07-01T03:36:11;101633.88;;;14.81;100.00
69528;BME280;57136;51.986;4.468;2022-07-01T03:38:36;101643.50;;;14.72;100.00
69528;BME280;57136;51.986;4.468;2022-07-01T03:41:01;101650.47;;;14.65;100.00
69528;BME280;57136;51.986;4.468;2022-07-01T03:43:27;101660.97;;;14.59;100.00
69528;BME280;57136;51.986;4.468;2022-07-01T03:45:52;101660.97;;;14.51;100.00
69528;BME280;57136;51.986;4.468;2022-07-01T03:48:17;101666.19;;;14.48;100.00
69528;BME280;57136;51.986;4.468;2022-07-01T03:50:43;101674.09;;;14.49;100.00
69528;BME280;57136;51.986;4.468;2022-07-01T03:53:09;101673.19;;;14.57;100.00
69528;BME280;57136;51.986;4.468;2022-07-01T03:55:52;101675.84;;;14.55;100.00
69528;BME280;57136;51.986;4.468;2022-07-01T03:58:18;101671.47;;;14.60;100.00
69528;BME280;57136;51.986;4.468;2022-07-01T04:00:43;101678.47;;;14.66;100.00
69528;BME280;57136;51.986;4.468;2022-07-01T04:03:08;101681.97;;;14.65;100.00
69528;BME280;57136;51.986;4.468;2022-07-01T04:05:36;101681.94;;;14.66;100.00
69528;BME280;57136;51.986;4.468;2022-07-01T04:08:06;101682.84;;;14.67;100.00
69528;BME280;57136;51.986;4.468;2022-07-01T04:10:33;101678.50;;;14.77;100.00
69528;BME280;57136;51.986;4.468;2022-07-01T04:12:59;101676.75;;;14.85;100.00
69528;BME280;57136;51.986;4.468;2022-07-01T04:15:25;101682.88;;;14.86;100.00
69528;BME280;57136;51.986;4.468;2022-07-01T04:17:50;101693.38;;;14.95;100.00
69528;BME280;57136;51.986;4.468;2022-07-01T04:20:19;101692.50;;;15.01;100.00
69528;BME280;57136;51.986;4.468;2022-07-01T04:22:44;101695.97;;;15.13;100.00
69528;BME280;57136;51.986;4.468;2022-07-01T04:25:10;101692.47;;;15.32;100.00
69528;BME280;57136;51.986;4.468;2022-07-01T04:27:35;101683.66;;;15.51;100.00
69528;BME280;57136;51.986;4.468;2022-07-01T04:30:00;101686.28;;;15.57;100.00
69528;BME280;57136;51.986;4.468;2022-07-01T04:32:28;101685.38;;;15.69;100.00
69528;BME280;57136;51.986;4.468;2022-07-01T04:34:53;101692.38;;;15.69;100.00
69528;BME280;57136;51.986;4.468;2022-07-01T04:37:22;101697.63;;;15.73;100.00
69528;BME280;57136;51.986;4.468;2022-07-01T04:39:48;101696.75;;;15.75;100.00
69528;BME280;57136;51.986;4.468;2022-07-01T04:42:13;101701.97;;;15.82;100.00
69528;BME280;57136;51.986;4.468;2022-07-01T04:44:41;101711.63;;;15.90;100.00
69528;BME280;57136;51.986;4.468;2022-07-01T04:47:07;101710.75;;;15.86;100.00
69528;BME280;57136;51.986;4.468;2022-07-01T04:49:32;101706.34;;;15.93;100.00
69528;BME280;57136;51.986;4.468;2022-07-01T04:51:58;101701.09;;;15.93;100.00
69528;BME280;57136;51.986;4.468;2022-07-01T04:54:24;101701.06;;;15.99;100.00
69528;BME280;57136;51.986;4.468;2022-07-01T04:56:51;101704.59;;;15.98;100.00
69528;BME280;57136;51.986;4.468;2022-07-01T04:59:17;101701.97;;;15.88;100.00
69528;BME280;57136;51.986;4.468;2022-07-01T05:01:44;101704.59;;;15.95;100.00
69528;BME280;57136;51.986;4.468;2022-07-01T05:04:11;101708.94;;;15.97;100.00
69528;BME280;57136;51.986;4.468;2022-07-01T05:06:37;101712.47;;;16.01;100.00
69528;BME280;57136;51.986;4.468;2022-07-01T05:09:02;101713.28;;;16.12;100.00
69528;BME280;57136;51.986;4.468;2022-07-01T05:11:28;101718.41;;;16.37;100.00
69528;BME280;57136;51.986;4.468;2022-07-01T05:13:53;101728.91;;;16.37;100.00
69528;BME280;57136;51.986;4.468;2022-07-01T05:16:19;101742.06;;;16.40;100.00
69528;BME280;57136;51.986;4.468;2022-07-01T05:18:45;101736.69;;;16.59;100.00
69528;BME280;57136;51.986;4.468;2022-07-01T05:21:29;101733.94;;;16.73;100.00
69528;BME280;57136;51.986;4.468;2022-07-01T05:24:13;101729.44;;;17.00;100.00
69528;BME280;57136;51.986;4.468;2022-07-01T05:26:38;101734.53;;;17.18;100.00
69528;BME280;57136;51.986;4.468;2022-07-01T05:29:04;101730.03;;;17.31;100.00
69528;BME280;57136;51.986;4.468;2022-07-01T05:31:29;101735.28;;;17.34;100.00
69528;BME280;57136;51.986;4.468;2022-07-01T05:33:55;101728.28;;;17.30;100.00
69528;BME280;57136;51.986;4.468;2022-07-01T05:36:20;101730.06;;;17.28;100.00
69528;BME280;57136;51.986;4.468;2022-07-01T05:38:46;101735.34;;;17.25;100.00
69528;BME280;57136;51.986;4.468;2022-07-01T05:41:12;101735.16;;;17.44;100.00
69528;BME280;57136;51.986;4.468;2022-07-01T05:43:37;101724.53;;;17.53;100.00
69528;BME280;57136;51.986;4.468;2022-07-01T05:46:03;101737.56;;;17.69;100.00
69528;BME280;57136;51.986;4.468;2022-07-01T05:48:28;101730.38;;;17.81;100.00
69528;BME280;57136;51.986;4.468;2022-07-01T05:50:54;101728.53;;;17.87;100.00
69528;BME280;57136;51.986;4.468;2022-07-01T05:53:20;101727.81;;;17.74;100.00
69528;BME280;57136;51.986;4.468;2022-07-01T05:55:46;101721.03;;;17.52;100.00
69528;BME280;57136;51.986;4.468;2022-07-01T05:58:12;101720.28;;;17.40;100.00
69528;BME280;57136;51.986;4.468;2022-07-01T06:00:41;101710.78;;;17.25;100.00
69528;BME280;57136;51.986;4.468;2022-07-01T06:03:08;101722.34;;;17.05;100.00
69528;BME280;57136;51.986;4.468;2022-07-01T06:05:33;101722.41;;;16.97;100.00
69528;BME280;57136;51.986;4.468;2022-07-01T06:07:59;101717.94;;;17.09;100.00
69528;BME280;57136;51.986;4.468;2022-07-01T06:10:24;101705.50;;;17.23;100.00
69528;BME280;57136;51.986;4.468;2022-07-01T06:12:49;101724.94;;;17.13;100.00
69528;BME280;57136;51.986;4.468;2022-07-01T06:15:15;101726.69;;;17.14;100.00
69528;BME280;57136;51.986;4.468;2022-07-01T06:17:41;101717.88;;;17.16;100.00
69528;BME280;57136;51.986;4.468;2022-07-01T06:20:07;101715.03;;;17.40;100.00
69528;BME280;57136;51.986;4.468;2022-07-01T06:22:33;101718.38;;;17.54;100.00
69528;BME280;57136;51.986;4.468;2022-07-01T06:24:59;101733.19;;;17.67;100.00
69528;BME280;57136;51.986;4.468;2022-07-01T06:27:25;101726.72;;;17.92;100.00
69528;BME280;57136;51.986;4.468;2022-07-01T06:29:51;101729.16;;;18.12;100.00
69528;BME280;57136;51.986;4.468;2022-07-01T06:32:17;101735.00;;;18.37;98.69
69528;BME280;57136;51.986;4.468;2022-07-01T06:34:43;101739.13;;;18.55;96.55
69528;BME280;57136;51.986;4.468;2022-07-01T06:37:08;101725.72;;;18.69;94.60
69528;BME280;57136;51.986;4.468;2022-07-01T06:39:34;101730.59;;;18.97;91.35
69528;BME280;57136;51.986;4.468;2022-07-01T06:41:59;101728.91;;;19.45;90.40
69528;BME280;57136;51.986;4.468;2022-07-01T06:44:24;101726.84;;;19.61;87.39
69528;BME280;57136;51.986;4.468;2022-07-01T06:46:50;101717.34;;;19.51;87.03
69528;BME280;57136;51.986;4.468;2022-07-01T06:49:15;101721.72;;;19.52;86.05
69528;BME280;57136;51.986;4.468;2022-07-01T06:51:40;101709.81;;;19.27;86.71
69528;BME280;57136;51.986;4.468;2022-07-01T06:54:06;101713.09;;;18.90;86.95
69528;BME280;57136;51.986;4.468;2022-07-01T06:56:31;101715.63;;;18.98;88.46
69528;BME280;57136;51.986;4.468;2022-07-01T06:58:57;101719.91;;;19.04;88.14
69528;BME280;57136;51.986;4.468;2022-07-01T07:01:22;101728.56;;;19.13;87.70
69528;BME280;57136;51.986;4.468;2022-07-01T07:03:48;101725.91;;;19.13;87.63
69528;BME280;57136;51.986;4.468;2022-07-01T07:06:13;101727.88;;;19.02;87.12
69528;BME280;57136;51.986;4.468;2022-07-01T07:08:39;101737.25;;;18.65;87.40
69528;BME280;57136;51.986;4.468;2022-07-01T07:11:04;101728.22;;;18.79;89.65
69528;BME280;57136;51.986;4.468;2022-07-01T07:13:30;101739.78;;;18.70;88.69
69528;BME280;57136;51.986;4.468;2022-07-01T07:15:55;101748.00;;;18.51;89.50
69528;BME280;57136;51.986;4.468;2022-07-01T07:18:21;101747.22;;;18.43;90.38
69528;BME280;57136;51.986;4.468;2022-07-01T07:20:46;101739.16;;;18.54;92.11
69528;BME280;57136;51.986;4.468;2022-07-01T07:23:15;101729.78;;;18.92;91.82
69528;BME280;57136;51.986;4.468;2022-07-01T07:25:41;101740.97;;;19.10;87.62
69528;BME280;57136;51.986;4.468;2022-07-01T07:28:06;101747.00;;;19.16;85.40
69528;BME280;57136;51.986;4.468;2022-07-01T07:30:31;101745.53;;;19.00;81.48
69528;BME280;57136;51.986;4.468;2022-07-01T07:32:57;101753.78;;;19.31;81.91
69528;BME280;57136;51.986;4.468;2022-07-01T07:35:22;101749.78;;;19.59;81.94
69528;BME280;57136;51.986;4.468;2022-07-01T07:37:48;101761.28;;;19.58;78.92
69528;BME280;57136;51.986;4.468;2022-07-01T07:40:13;101766.09;;;19.34;77.94
69528;BME280;57136;51.986;4.468;2022-07-01T07:42:44;101775.88;;;19.29;80.09
69528;BME280;57136;51.986;4.468;2022-07-01T07:45:10;101773.66;;;19.04;79.62
69528;BME280;57136;51.986;4.468;2022-07-01T07:47:37;101782.50;;;18.98;79.74
69528;BME280;57136;51.986;4.468;2022-07-01T07:50:04;101780.72;;;19.02;80.56
69528;BME280;57136;51.986;4.468;2022-07-01T07:52:30;101776.56;;;18.82;81.13
69528;BME280;57136;51.986;4.468;2022-07-01T07:54:55;101771.59;;;18.62;83.17
69528;BME280;57136;51.986;4.468;2022-07-01T07:57:21;101769.16;;;18.48;83.04
69528;BME280;57136;51.986;4.468;2022-07-01T07:59:46;101772.06;;;18.28;83.54
69528;BME280;57136;51.986;4.468;2022-07-01T08:02:12;101775.47;;;18.36;83.94
69528;BME280;57136;51.986;4.468;2022-07-01T08:04:37;101783.22;;;18.49;84.53
69528;BME280;57136;51.986;4.468;2022-07-01T08:07:03;101783.34;;;18.38;85.87
69528;BME280;57136;51.986;4.468;2022-07-01T08:09:28;101785.84;;;18.49;85.43
69528;BME280;57136;51.986;4.468;2022-07-01T08:11:54;101782.34;;;18.47;83.75
69528;BME280;57136;51.986;4.468;2022-07-01T08:14:19;101779.97;;;18.92;85.37
69528;BME280;57136;51.986;4.468;2022-07-01T08:16:44;101780.44;;;19.69;82.04
69528;BME280;57136;51.986;4.468;2022-07-01T08:19:10;101795.97;;;19.86;79.00
69528;BME280;57136;51.986;4.468;2022-07-01T08:21:35;101800.97;;;19.55;79.86
69528;BME280;57136;51.986;4.468;2022-07-01T08:24:01;101798.31;;;19.01;83.96
69528;BME280;57136;51.986;4.468;2022-07-01T08:26:26;101795.69;;;18.37;85.86
69528;BME280;57136;51.986;4.468;2022-07-01T08:28:51;101795.06;;;18.14;88.95
69528;BME280;57136;51.986;4.468;2022-07-01T08:31:17;101801.22;;;18.16;90.38
69528;BME280;57136;51.986;4.468;2022-07-01T08:33:42;101802.09;;;18.15;88.28
69528;BME280;57136;51.986;4.468;2022-07-01T08:36:09;101805.75;;;18.03;88.45
69528;BME280;57136;51.986;4.468;2022-07-01T08:38:35;101805.81;;;17.95;90.65
69528;BME280;57136;51.986;4.468;2022-07-01T08:41:01;101801.41;;;17.99;90.21
69528;BME280;57136;51.986;4.468;2022-07-01T08:43:27;101809.16;;;18.12;91.73
69528;BME280;57136;51.986;4.468;2022-07-01T08:45:53;101817.75;;;18.29;90.08
69528;BME280;57136;51.986;4.468;2022-07-01T08:48:19;101813.31;;;18.35;87.14
69528;BME280;57136;51.986;4.468;2022-07-01T08:50:45;101824.91;;;18.19;87.11
69528;BME280;57136;51.986;4.468;2022-07-01T08:53:12;101828.44;;;18.19;86.81
69528;BME280;57136;51.986;4.468;2022-07-01T08:55:38;101826.69;;;18.17;87.94
69528;BME280;57136;51.986;4.468;2022-07-01T08:58:28;101826.53;;;18.32;87.72
69528;BME280;57136;51.986;4.468;2022-07-01T09:01:20;101821.31;;;18.92;88.10
69528;BME280;57136;51.986;4.468;2022-07-01T09:03:46;101821.81;;;19.72;86.07
69528;BME280;57136;51.986;4.468;2022-07-01T09:06:17;101829.66;;;20.68;83.06
69528;BME280;57136;51.986;4.468;2022-07-01T09:08:43;101826.56;;;20.47;78.95
69528;BME280;57136;51.986;4.468;2022-07-01T09:11:16;101826.88;;;19.86;78.81
69528;BME280;57136;51.986;4.468;2022-07-01T09:13:43;101831.16;;;19.41;76.03
69528;BME280;57136;51.986;4.468;2022-07-01T09:16:13;101830.97;;;18.97;76.16
69528;BME280;57136;51.986;4.468;2022-07-01T09:18:39;101827.50;;;18.92;78.03
69528;BME280;57136;51.986;4.468;2022-07-01T09:21:07;101836.03;;;18.47;79.65
69528;BME280;57136;51.986;4.468;2022-07-01T09:23:34;101842.34;;;18.34;81.06
69528;BME280;57136;51.986;4.468;2022-07-01T09:25:59;101835.34;;;18.30;82.47
69528;BME280;57136;51.986;4.468;2022-07-01T09:28:25;101841.41;;;18.38;82.36
69528;BME280;57136;51.986;4.468;2022-07-01T09:30:54;101837.56;;;18.64;84.64
69528;BME280;57136;51.986;4.468;2022-07-01T09:33:24;101832.75;;;19.52;79.04
69528;BME280;57136;51.986;4.468;2022-07-01T09:35:50;101841.41;;;20.10;75.92
69528;BME280;57136;51.986;4.468;2022-07-01T09:38:20;101846.91;;;21.25;72.28
69528;BME280;57136;51.986;4.468;2022-07-01T09:43:20;101836.84;;;23.54;62.60
69528;BME280;57136;51.986;4.468;2022-07-01T09:45:50;101848.84;;;23.39;62.13
69528;BME280;57136;51.986;4.468;2022-07-01T09:48:16;101841.41;;;22.65;62.78
69528;BME280;57136;51.986;4.468;2022-07-01T09:50:41;101849.38;;;21.69;64.70
69528;BME280;57136;51.986;4.468;2022-07-01T09:53:06;101849.75;;;21.17;69.24
69528;BME280;57136;51.986;4.468;2022-07-01T09:55:34;101839.47;;;21.03;71.42
69528;BME280;57136;51.986;4.468;2022-07-01T09:57:59;101844.06;;;21.33;68.50
69528;BME280;57136;51.986;4.468;2022-07-01T10:00:26;101846.25;;;21.51;66.24
69528;BME280;57136;51.986;4.468;2022-07-01T10:02:53;101853.22;;;21.19;67.60
69528;BME280;57136;51.986;4.468;2022-07-01T10:05:20;101848.31;;;21.02;68.87
69528;BME280;57136;51.986;4.468;2022-07-01T10:08:10;101848.38;;;20.60;69.35
69528;BME280;57136;51.986;4.468;2022-07-01T10:13:47;101851.31;;;20.00;68.96
69528;BME280;57136;51.986;4.468;2022-07-01T10:16:13;101862.16;;;19.85;69.35
69528;BME280;57136;51.986;4.468;2022-07-01T10:18:39;101858.66;;;20.74;65.56
69528;BME280;57136;51.986;4.468;2022-07-01T10:21:06;101855.88;;;22.23;63.91
69528;BME280;57136;51.986;4.468;2022-07-01T10:26:05;101861.28;;;24.40;49.51
69528;BME280;57136;51.986;4.468;2022-07-01T10:31:10;101870.34;;;24.60;51.27
69528;BME280;57136;51.986;4.468;2022-07-01T10:33:48;101871.19;;;24.13;47.95
69528;BME280;57136;51.986;4.468;2022-07-01T10:36:25;101867.97;;;23.24;48.81
69528;BME280;57136;51.986;4.468;2022-07-01T10:41:32;101877.16;;;24.43;48.27
69528;BME280;57136;51.986;4.468;2022-07-01T10:43:58;101872.53;;;24.48;46.87
69528;BME280;57136;51.986;4.468;2022-07-01T10:47:04;101870.78;;;24.47;47.13
69528;BME280;57136;51.986;4.468;2022-07-01T10:52:10;101878.44;;;24.33;47.70
69528;BME280;57136;51.986;4.468;2022-07-01T10:59:56;101869.00;;;24.24;47.84
69528;BME280;57136;51.986;4.468;2022-07-01T11:02:40;101871.25;;;23.84;48.46
69528;BME280;57136;51.986;4.468;2022-07-01T11:05:13;101874.31;;;23.46;51.12
69528;BME280;57136;51.986;4.468;2022-07-01T11:07:42;101871.31;;;22.72;53.18
69528;BME280;57136;51.986;4.468;2022-07-01T11:10:10;101877.53;;;22.08;54.11
69528;BME280;57136;51.986;4.468;2022-07-01T11:12:36;101876.38;;;21.49;55.91
69528;BME280;57136;51.986;4.468;2022-07-01T11:15:03;101880.97;;;21.04;55.70
69528;BME280;57136;51.986;4.468;2022-07-01T11:17:32;101876.38;;;20.70;59.32
69528;BME280;57136;51.986;4.468;2022-07-01T11:19:58;101878.91;;;20.32;59.87
69528;BME280;57136;51.986;4.468;2022-07-01T11:22:28;101881.75;;;20.23;63.11
69528;BME280;57136;51.986;4.468;2022-07-01T11:24:56;101886.47;;;20.07;63.25
69528;BME280;57136;51.986;4.468;2022-07-01T11:27:22;101901.22;;;19.67;66.57
69528;BME280;57136;51.986;4.468;2022-07-01T11:29:52;101903.41;;;19.42;71.94
69528;BME280;57136;51.986;4.468;2022-07-01T11:32:29;101905.88;;;18.89;77.46
69528;BME280;57136;51.986;4.468;2022-07-01T11:34:56;101911.81;;;18.36;81.33
69528;BME280;57136;51.986;4.468;2022-07-01T11:37:22;101924.28;;;18.21;84.42
69528;BME280;57136;51.986;4.468;2022-07-01T11:40:13;101919.97;;;18.11;84.25
69528;BME280;57136;51.986;4.468;2022-07-01T11:42:41;101924.41;;;18.10;86.83
69528;BME280;57136;51.986;4.468;2022-07-01T11:45:07;101939.09;;;18.32;86.57
69528;BME280;57136;51.986;4.468;2022-07-01T11:47:33;101933.47;;;18.67;82.84
69528;BME280;57136;51.986;4.468;2022-07-01T11:49:59;101928.16;;;18.69;82.32
69528;BME280;57136;51.986;4.468;2022-07-01T11:52:25;101928.81;;;18.86;82.86
69528;BME280;57136;51.986;4.468;2022-07-01T11:54:52;101927.25;;;18.68;79.75
69528;BME280;57136;51.986;4.468;2022-07-01T11:57:23;101932.19;;;19.01;78.75
69528;BME280;57136;51.986;4.468;2022-07-01T11:59:51;101938.88;;;19.27;78.75
69528;BME280;57136;51.986;4.468;2022-07-01T12:02:18;101938.25;;;19.69;77.82
69528;BME280;57136;51.986;4.468;2022-07-01T12:04:44;101934.69;;;19.70;77.87
69528;BME280;57136;51.986;4.468;2022-07-01T12:07:11;101944.09;;;19.86;78.14
69528;BME280;57136;51.986;4.468;2022-07-01T12:09:37;101939.75;;;19.82;77.65
69528;BME280;57136;51.986;4.468;2022-07-01T12:12:03;101942.41;;;19.82;77.45
69528;BME280;57136;51.986;4.468;2022-07-01T12:14:34;101945.66;;;20.01;77.08
69528;BME280;57136;51.986;4.468;2022-07-01T12:17:05;101941.53;;;20.33;74.94
69528;BME280;57136;51.986;4.468;2022-07-01T12:19:43;101939.88;;;20.73;73.17
69528;BME280;57136;51.986;4.468;2022-07-01T12:22:11;101940.63;;;20.82;67.44
69528;BME280;57136;51.986;4.468;2022-07-01T12:24:38;101936.88;;;20.92;67.21
69528;BME280;57136;51.986;4.468;2022-07-01T12:27:05;101931.38;;;21.01;68.43
69528;BME280;57136;51.986;4.468;2022-07-01T12:29:49;101936.56;;;21.06;67.94
69528;BME280;57136;51.986;4.468;2022-07-01T12:32:19;101937.72;;;20.94;65.92
69528;BME280;57136;51.986;4.468;2022-07-01T12:34:56;101943.72;;;20.58;68.78
69528;BME280;57136;51.986;4.468;2022-07-01T12:37:35;101956.63;;;20.28;69.64
69528;BME280;57136;51.986;4.468;2022-07-01T12:40:06;101961.53;;;20.01;73.42
69528;BME280;57136;51.986;4.468;2022-07-01T12:42:36;101957.78;;;19.60;77.97
69528;BME280;57136;51.986;4.468;2022-07-01T12:45:10;101957.34;;;19.28;80.04
69528;BME280;57136;51.986;4.468;2022-07-01T12:47:37;101952.84;;;19.35;82.90
69528;BME280;57136;51.986;4.468;2022-07-01T12:50:16;101952.81;;;19.37;82.34
69528;BME280;57136;51.986;4.468;2022-07-01T12:52:56;101957.28;;;19.33;79.02
69528;BME280;57136;51.986;4.468;2022-07-01T12:55:23;101956.28;;;19.40;80.21
69528;BME280;57136;51.986;4.468;2022-07-01T12:57:52;101951.94;;;19.38;81.39
69528;BME280;57136;51.986;4.468;2022-07-01T13:00:20;101957.84;;;19.54;81.99
69528;BME280;57136;51.986;4.468;2022-07-01T13:02:46;101955.50;;;19.93;79.69
69528;BME280;57136;51.986;4.468;2022-07-01T13:05:12;101947.75;;;20.32;76.16
69528;BME280;57136;51.986;4.468;2022-07-01T13:07:38;101947.81;;;20.75;74.81